Time;durP1;ratioP1;P1;durP2;ratioP2;P2;SDS_P1;SDS_P2;PMS_P1;PMS_P2;Temp;Humidity;BMP_temperature;BMP_pressure;BME280_temperature;BME280_humidity;BME280_pressure;Samples;Min_cycle;Max_cycle;Signal;HPM_P1;HPM_P2
2022/10/03 00:02:51;;;;;;;1.85;0.50;;;;;;;19.35;48.14;102545.59;16131327;19;129590;-61
2022/10/03 00:08:13;;;;;;;1.13;0.40;;;;;;;19.34;48.09;102541.13;16129823;19;129290;-61
2022/10/03 00:14:13;;;;;;;0.47;0.38;;;;;;;19.34;48.24;102548.59;16132626;19;130239;-62
2022/10/03 00:20:07;;;;;;;1.33;0.40;;;;;;;19.33;47.82;102550.50;16129949;19;129743;-62
2022/10/03 00:25:46;;;;;;;2.60;0.50;;;;;;;19.32;48.12;102553.50;16120696;19;129702;-63
2022/10/03 00:31:13;;;;;;;2.13;0.47;;;;;;;19.30;48.02;102556.50;16120281;19;129975;-61
2022/10/03 00:36:48;;;;;;;1.38;0.30;;;;;;;19.29;47.82;102549.25;16121154;19;130055;-61
2022/10/03 00:42:39;;;;;;;1.15;0.47;;;;;;;19.28;48.04;102547.53;16119497;19;129514;-60
2022/10/03 00:48:21;;;;;;;1.70;0.20;;;;;;;19.25;47.65;102547.09;16121378;19;129743;-61
2022/10/03 00:53:49;;;;;;;0.77;0.50;;;;;;;19.21;47.95;102561.38;16120474;19;129704;-61
2022/10/03 00:59:14;;;;;;;0.40;0.20;;;;;;;19.22;47.64;102576.97;16118233;19;129172;-61
2022/10/03 01:04:57;;;;;;;1.20;0.40;;;;;;;19.22;47.75;102574.19;16128724;19;130812;-60
2022/10/03 01:10:26;;;;;;;1.35;0.47;;;;;;;19.22;47.66;102587.19;16123581;19;129902;-60
2022/10/03 01:16:18;;;;;;;0.77;0.32;;;;;;;19.20;47.83;102589.31;16124222;19;128965;-61
2022/10/03 01:21:51;;;;;;;1.05;0.50;;;;;;;19.18;47.81;102585.91;16125085;19;129608;-60
2022/10/03 01:27:23;;;;;;;1.98;0.40;;;;;;;19.18;47.65;102594.22;16125145;19;129528;-61
2022/10/03 01:32:48;;;;;;;0.47;0.22;;;;;;;19.17;47.48;102585.03;16124598;19;129127;-61
2022/10/03 01:38:23;;;;;;;2.30;0.53;;;;;;;19.16;47.72;102602.72;16121461;19;129868;-64
2022/10/03 01:43:54;;;;;;;2.10;0.50;;;;;;;19.17;47.69;102601.66;16122914;19;130086;-63
2022/10/03 01:49:24;;;;;;;1.85;0.50;;;;;;;19.16;47.87;102596.34;16124881;19;128924;-67
2022/10/03 01:55:18;;;;;;;1.55;0.40;;;;;;;19.15;47.39;102597.41;16121816;19;129549;-65
2022/10/03 02:01:03;;;;;;;1.98;0.35;;;;;;;19.14;47.62;102592.91;16122551;19;129980;-67
2022/10/03 02:06:41;;;;;;;0.90;0.30;;;;;;;19.11;47.85;102596.97;16119525;19;129480;-68
2022/10/03 02:12:29;;;;;;;0.55;0.30;;;;;;;19.11;47.71;102596.09;16122118;19;130323;-66
2022/10/03 02:17:56;;;;;;;0.52;0.30;;;;;;;19.10;47.61;102595.25;16121964;19;131861;-67
2022/10/03 02:23:42;;;;;;;0.70;0.40;;;;;;;19.08;47.34;102598.22;16120397;19;129568;-65
2022/10/03 02:29:22;;;;;;;0.37;0.30;;;;;;;19.08;47.73;102595.44;16121639;19;129986;-62
2022/10/03 02:35:06;;;;;;;0.30;0.30;;;;;;;19.06;47.67;102597.59;16119332;19;129967;-62
2022/10/03 02:40:43;;;;;;;0.52;0.30;;;;;;;19.06;47.78;102586.50;16121784;19;129286;-65
2022/10/03 02:46:42;;;;;;;0.93;0.30;;;;;;;19.04;47.47;102580.31;16120456;19;129621;-66
2022/10/03 02:52:10;;;;;;;0.82;0.38;;;;;;;19.04;47.32;102584.97;16122260;19;129630;-63
2022/10/03 02:57:40;;;;;;;0.80;0.45;;;;;;;19.04;47.77;102590.53;16132725;19;129245;-61
2022/10/03 03:03:20;;;;;;;0.50;0.30;;;;;;;19.03;47.67;102591.59;16132029;19;129477;-66
2022/10/03 03:09:00;;;;;;;0.85;0.30;;;;;;;19.01;47.26;102605.69;16133566;19;130473;-66
2022/10/03 03:14:42;;;;;;;0.43;0.40;;;;;;;19.01;47.48;102608.47;16135793;19;129661;-66
2022/10/03 03:20:36;;;;;;;0.50;0.40;;;;;;;19.00;47.29;102600.34;16134806;19;130648;-63
2022/10/03 03:26:28;;;;;;;0.85;0.43;;;;;;;19.00;47.28;102594.81;16135919;19;129874;-66
2022/10/03 03:32:00;;;;;;;0.63;0.30;;;;;;;18.97;47.25;102601.59;16132281;19;129473;-63
2022/10/03 03:37:34;;;;;;;0.68;0.30;;;;;;;18.97;47.23;102601.59;16133212;19;129259;-66
2022/10/03 03:43:33;;;;;;;0.55;0.32;;;;;;;18.96;47.60;102610.97;16134368;19;129253;-65
2022/10/03 03:49:12;;;;;;;0.68;0.40;;;;;;;18.96;47.52;102610.97;16132371;19;129768;-63
2022/10/03 03:54:57;;;;;;;0.20;0.20;;;;;;;18.96;47.55;102621.25;16131315;19;129201;-66
2022/10/03 04:00:30;;;;;;;0.50;0.30;;;;;;;18.94;47.40;102617.81;16127202;19;129742;-66
2022/10/03 04:06:11;;;;;;;0.55;0.47;;;;;;;18.95;47.29;102612.06;16127740;19;129489;-62
2022/10/03 04:12:06;;;;;;;0.38;0.30;;;;;;;18.93;47.03;102611.41;16127658;19;129964;-67
2022/10/03 04:23:57;;;;;;;0.30;0.30;;;;;;;18.90;47.44;102606.28;16126029;19;129337;-63
2022/10/03 04:29:18;;;;;;;0.38;0.30;;;;;;;18.88;47.25;102605.63;16129747;19;129106;-64
2022/10/03 04:34:43;;;;;;;0.40;0.30;;;;;;;18.88;47.44;102608.41;16128645;19;129589;-65
2022/10/03 04:40:22;;;;;;;0.30;0.30;;;;;;;18.87;47.13;102615.00;16128416;19;129521;-66
2022/10/03 04:45:44;;;;;;;0.50;0.30;;;;;;;18.86;47.38;102633.56;16131767;19;129449;-67
2022/10/03 04:51:30;;;;;;;1.60;0.45;;;;;;;18.87;47.49;102618.66;16128596;19;129778;-67
2022/10/03 04:57:01;;;;;;;0.50;0.32;;;;;;;18.86;47.00;102622.47;16128652;19;130613;-67
2022/10/03 05:02:35;;;;;;;0.40;0.30;;;;;;;18.87;47.14;102631.66;16126134;19;130550;-68
2022/10/03 05:08:06;;;;;;;0.30;0.30;;;;;;;18.86;47.10;102638.25;16125463;19;134181;-67
2022/10/03 05:13:40;;;;;;;0.70;0.40;;;;;;;18.86;47.41;102635.47;16123134;19;129668;-68
2022/10/03 05:19:20;;;;;;;0.88;0.40;;;;;;;18.86;46.85;102632.72;16125272;19;129801;-66
2022/10/03 05:24:54;;;;;;;0.40;0.30;;;;;;;18.86;46.96;102641.03;16124772;19;130041;-65
2022/10/03 05:30:35;;;;;;;0.98;0.40;;;;;;;18.87;46.99;102646.38;16124940;19;129915;-64
2022/10/03 05:36:04;;;;;;;1.00;0.40;;;;;;;18.84;46.93;102635.69;16123937;19;129959;-64
2022/10/03 05:41:35;;;;;;;0.60;0.30;;;;;;;18.84;46.97;102640.38;16122360;19;129530;-64
2022/10/03 05:47:02;;;;;;;0.77;0.52;;;;;;;18.82;46.95;102636.97;16123200;19;129500;-69
2022/10/03 05:52:42;;;;;;;2.28;0.70;;;;;;;18.84;46.97;102640.38;16120097;19;130348;-63
2022/10/03 05:58:19;;;;;;;4.47;0.73;;;;;;;18.83;46.79;102645.06;16120929;19;129968;-59
2022/10/03 06:03:59;;;;;;;2.63;0.70;;;;;;;18.83;46.82;102666.41;16121206;19;129161;-66
2022/10/03 06:09:26;;;;;;;3.17;0.63;;;;;;;18.80;47.05;102673.22;16121926;19;129917;-66
2022/10/03 06:15:12;;;;;;;3.72;0.63;;;;;;;18.81;46.70;102674.09;16123567;19;129742;-64
2022/10/03 06:20:45;;;;;;;2.50;0.43;;;;;;;18.79;46.68;102673.41;16124137;19;129071;-63
2022/10/03 06:26:43;;;;;;;1.40;0.50;;;;;;;18.80;46.69;102670.44;16130751;19;130241;-64
2022/10/03 06:32:45;;;;;;;5.78;0.80;;;;;;;18.80;46.93;102667.66;16132793;19;129654;-62
2022/10/03 06:38:26;;;;;;;1.85;0.77;;;;;;;18.81;46.92;102672.16;16138615;19;129270;-61
2022/10/03 06:44:09;;;;;;;2.10;0.68;;;;;;;18.86;46.71;102665.97;16135212;19;129718;-66
2022/10/03 06:50:02;;;;;;;1.88;0.70;;;;;;;18.94;46.29;102685.25;16137823;19;130615;-65
2022/10/03 06:55:42;;;;;;;2.05;0.60;;;;;;;19.00;46.14;102683.56;16134381;19;130152;-62
2022/10/03 07:01:10;;;;;;;1.15;0.60;;;;;;;19.07;46.46;102685.31;16136644;19;130132;-60
2022/10/03 07:07:04;;;;;;;0.90;0.32;;;;;;;19.13;46.33;102694.72;16137176;19;129968;-65
2022/10/03 07:12:32;;;;;;;0.60;0.40;;;;;;;19.19;46.38;102693.88;16131504;19;130360;-62
2022/10/03 07:18:16;;;;;;;1.17;0.38;;;;;;;19.36;45.96;102694.41;16135119;19;129553;-64
2022/10/03 07:24:01;;;;;;;3.33;0.50;;;;;;;20.01;44.99;102695.84;16134341;19;131299;-64
2022/10/03 07:29:49;;;;;;;0.75;0.40;;;;;;;22.33;41.05;102703.75;16124301;19;129604;-71
2022/10/03 07:38:56;;;;;;;0.63;0.40;;;;;;;24.07;37.70;102702.66;16123233;19;129685;-66
2022/10/03 07:41:23;;;;;;;0.55;0.40;;;;;;;24.92;36.18;102705.25;16124620;19;129449;-64
2022/10/03 07:46:51;;;;;;;1.38;0.30;;;;;;;25.80;34.67;102705.91;16130137;19;130109;-65
2022/10/03 07:52:39;;;;;;;1.35;0.40;;;;;;;26.61;33.03;102717.06;16130417;19;129796;-64
2022/10/03 07:58:09;;;;;;;1.40;0.60;;;;;;;26.98;32.08;102722.94;16133530;19;129849;-61
2022/10/03 08:04:08;;;;;;;0.52;0.30;;;;;;;26.76;32.08;102724.88;16129930;19;129267;-64
2022/10/03 08:09:42;;;;;;;1.90;0.45;;;;;;;25.28;34.09;102722.81;16124271;19;129437;-65
2022/10/03 08:15:25;;;;;;;1.40;0.40;;;;;;;23.85;36.05;102725.59;16126930;19;129645;-60
2022/10/03 08:20:59;;;;;;;2.10;0.40;;;;;;;22.84;37.96;102735.19;16129441;19;129805;-61
2022/10/03 08:26:46;;;;;;;1.48;0.60;;;;;;;22.11;39.36;102742.28;16128991;19;129400;-61
2022/10/03 08:32:46;;;;;;;0.93;0.60;;;;;;;21.59;40.52;102742.41;16129324;19;129317;-65
2022/10/03 08:38:09;;;;;;;0.73;0.35;;;;;;;21.18;40.90;102739.75;16127852;19;129743;-64
2022/10/03 08:43:55;;;;;;;1.67;0.40;;;;;;;20.90;41.92;102738.16;16127591;19;129997;-65
2022/10/03 08:49:39;;;;;;;0.45;0.38;;;;;;;20.69;42.15;102730.00;16125391;19;129414;-63
2022/10/03 08:55:30;;;;;;;1.00;0.50;;;;;;;20.53;42.99;102736.88;16128847;19;130073;-64
2022/10/03 09:01:10;;;;;;;0.75;0.30;;;;;;;20.39;43.19;102742.44;16128505;19;129359;-65
2022/10/03 09:06:48;;;;;;;1.05;0.50;;;;;;;20.28;43.68;102735.63;16128450;19;131909;-64
2022/10/03 09:13:04;;;;;;;0.85;0.40;;;;;;;20.18;43.97;102735.19;16126841;19;131039;-61
2022/10/03 09:18:58;;;;;;;0.80;0.40;;;;;;;20.11;44.00;102734.31;16124210;19;129657;-62
2022/10/03 09:24:43;;;;;;;1.27;0.43;;;;;;;20.03;43.93;102724.25;16114090;19;130482;-60
2022/10/03 09:30:14;;;;;;;0.40;0.38;;;;;;;19.98;44.42;102716.53;16116947;19;130217;-63
2022/10/03 09:35:39;;;;;;;0.77;0.45;;;;;;;19.91;44.36;102715.69;16118952;19;129629;-64
2022/10/03 09:41:31;;;;;;;0.30;0.30;;;;;;;19.90;44.36;102713.09;16116275;19;129346;-64
2022/10/03 09:47:22;;;;;;;0.63;0.40;;;;;;;19.83;44.74;102718.66;16114181;19;129739;-63
2022/10/03 09:53:14;;;;;;;0.93;0.45;;;;;;;19.76;45.07;102710.31;16116355;19;130573;-63
2022/10/03 09:59:13;;;;;;;1.58;0.43;;;;;;;19.73;45.00;102699.63;16115049;19;129504;-64
2022/10/03 10:04:59;;;;;;;0.70;0.40;;;;;;;19.68;44.99;102691.94;16120129;19;129698;-63
2022/10/03 10:10:59;;;;;;;0.52;0.38;;;;;;;19.68;44.92;102714.16;16119979;19;130225;-62
2022/10/03 10:16:45;;;;;;;0.93;0.45;;;;;;;19.66;45.26;102709.84;16118376;19;130857;-63
2022/10/03 10:22:30;;;;;;;0.93;0.60;;;;;;;19.62;45.03;102714.97;16118947;19;129397;-63
2022/10/03 10:28:07;;;;;;;2.83;0.40;;;;;;;19.60;45.31;102697.66;16123191;19;130377;-64
2022/10/03 10:34:06;;;;;;;1.05;0.30;;;;;;;19.58;45.41;102697.03;16119725;19;129914;-65
2022/10/03 10:39:47;;;;;;;2.03;0.30;;;;;;;19.57;45.46;102694.47;16125077;19;129807;-63
2022/10/03 10:45:50;;;;;;;1.90;0.60;;;;;;;19.56;45.21;102689.97;16122143;19;130417;-63
2022/10/03 10:51:48;;;;;;;1.30;0.30;;;;;;;19.53;45.45;102694.88;16121609;19;130001;-64
2022/10/03 10:57:47;;;;;;;1.55;0.40;;;;;;;19.53;45.76;102694.88;16117435;19;130030;-62
2022/10/03 11:03:21;;;;;;;1.30;0.50;;;;;;;19.52;45.73;102692.31;16117353;19;131478;-64
2022/10/03 11:09:04;;;;;;;0.95;0.35;;;;;;;19.51;45.64;102685.91;16117839;19;129297;-64
2022/10/03 11:14:27;;;;;;;1.02;0.30;;;;;;;19.51;45.44;102690.59;16128485;19;130315;-65
2022/10/03 11:20:09;;;;;;;1.27;0.43;;;;;;;19.52;45.76;102692.31;16132892;19;129583;-64
2022/10/03 11:25:58;;;;;;;0.75;0.38;;;;;;;19.50;45.81;102683.34;16132464;19;130232;-64
2022/10/03 11:31:36;;;;;;;0.40;0.30;;;;;;;19.48;45.49;102685.47;16132723;19;130058;-62
2022/10/03 11:37:01;;;;;;;1.15;0.38;;;;;;;19.46;45.92;102687.59;16129509;19;129673;-65
2022/10/03 11:42:52;;;;;;;0.20;0.15;;;;;;;19.48;45.53;102693.78;16129375;19;129250;-60
2022/10/03 11:48:22;;;;;;;1.40;0.40;;;;;;;19.45;45.85;102692.28;16132435;19;129485;-63
2022/10/03 11:54:03;;;;;;;1.40;0.30;;;;;;;19.46;46.00;102684.81;16129517;19;129885;-62
2022/10/03 12:00:09;;;;;;;1.63;0.35;;;;;;;19.45;45.60;102680.31;16130619;19;129337;-60
2022/10/03 12:08:53;;;;;;;2.63;0.45;;;;;;;19.43;45.77;102683.31;16131307;19;129904;-64
2022/10/03 12:11:45;;;;;;;0.68;0.30;;;;;;;19.44;45.86;102673.09;16129650;19;129557;-64
2022/10/03 12:17:16;;;;;;;0.70;0.30;;;;;;;19.44;45.86;102673.09;16129218;19;129638;-60
2022/10/03 12:22:57;;;;;;;1.02;0.43;;;;;;;19.44;45.96;102662.81;16127324;19;130165;-63
2022/10/03 12:28:29;;;;;;;1.58;0.43;;;;;;;19.43;45.52;102654.72;16124611;19;130285;-65
2022/10/03 12:34:16;;;;;;;0.75;0.20;;;;;;;19.44;45.54;102643.41;16131093;19;132131;-62
2022/10/03 12:39:47;;;;;;;0.90;0.20;;;;;;;19.43;45.57;102644.47;16128076;19;129247;-62
2022/10/03 12:45:33;;;;;;;0.93;0.30;;;;;;;19.46;45.70;102643.19;16126160;19;130536;-61
2022/10/03 12:51:18;;;;;;;1.10;0.40;;;;;;;19.43;45.70;102633.38;16130196;19;129645;-63
2022/10/03 12:56:48;;;;;;;1.70;0.50;;;;;;;19.43;45.79;102644.47;16124339;19;129591;-61
2022/10/03 13:02:21;;;;;;;6.50;0.52;;;;;;;19.43;46.02;102632.53;16125645;19;129507;-64
2022/10/03 13:08:23;;;;;;;20.85;1.40;;;;;;;19.43;45.57;102622.25;16126949;19;129478;-63
2022/10/03 13:14:05;;;;;;;11.90;1.30;;;;;;;19.51;44.82;102618.44;16126426;19;129942;-64
2022/10/03 13:19:42;;;;;;;5.00;0.93;;;;;;;19.57;44.82;102628.69;16128415;19;130095;-60
2022/10/03 13:25:17;;;;;;;11.57;1.27;;;;;;;19.62;44.57;102623.34;16123443;19;130118;-63
2022/10/03 13:30:54;;;;;;;6.35;0.80;;;;;;;19.67;44.75;102608.84;16130104;19;129195;-63
2022/10/03 13:36:36;;;;;;;17.17;1.10;;;;;;;19.72;45.30;102617.41;16124205;19;129360;-62
2022/10/03 13:42:54;;;;;;;24.35;2.20;;;;;;;19.75;44.81;102610.56;16126000;19;130807;-61
2022/10/03 13:48:25;;;;;;;5.95;1.10;;;;;;;19.75;45.01;102607.78;16116611;19;129524;-62
2022/10/03 13:54:05;;;;;;;18.42;1.90;;;;;;;19.77;45.42;102598.16;16114737;19;130973;-63
2022/10/03 13:59:51;;;;;;;26.77;2.13;;;;;;;19.78;45.61;102596.25;16113031;19;131504;-64
2022/10/03 14:05:22;;;;;;;22.23;1.92;;;;;;;19.78;45.15;102580.44;16117028;19;129831;-63
2022/10/03 14:11:09;;;;;;;21.40;2.00;;;;;;;19.74;45.33;102579.16;16114944;19;130733;-63
2022/10/03 14:16:35;;;;;;;24.77;1.77;;;;;;;19.64;45.44;102573.16;16118380;19;129930;-65
2022/10/03 14:22:21;;;;;;;14.38;1.40;;;;;;;19.60;45.34;102556.06;16124673;19;129454;-62
2022/10/03 14:28:11;;;;;;;6.68;1.02;;;;;;;19.56;44.69;102563.16;16121084;19;129763;-62
2022/10/03 14:33:45;;;;;;;8.35;1.20;;;;;;;19.54;44.70;102551.41;16123049;19;129470;-63
2022/10/03 14:39:37;;;;;;;9.65;1.20;;;;;;;19.53;44.57;102544.13;16120412;19;129799;-63
2022/10/03 14:45:16;;;;;;;4.53;0.85;;;;;;;19.54;45.08;102545.84;16119766;19;129661;-59
2022/10/03 14:50:40;;;;;;;8.57;0.90;;;;;;;19.51;45.04;102540.72;16136205;19;129734;-61
2022/10/03 14:56:07;;;;;;;8.70;1.10;;;;;;;19.50;44.73;102539.00;16137443;19;129836;-61
2022/10/03 15:01:29;;;;;;;17.05;1.27;;;;;;;19.48;44.79;102535.56;16136323;19;129496;-61
2022/10/03 15:06:53;;;;;;;6.78;0.70;;;;;;;19.49;45.05;102520.63;16136914;19;129761;-63
2022/10/03 15:12:23;;;;;;;7.20;1.42;;;;;;;19.48;44.83;102527.25;16132223;19;129548;-61
2022/10/03 15:17:49;;;;;;;6.72;0.75;;;;;;;19.47;45.02;102514.44;16133978;19;129654;-65
2022/10/03 15:23:35;;;;;;;15.52;1.15;;;;;;;19.48;44.89;102516.16;16134097;19;129655;-64
2022/10/03 15:28:59;;;;;;;5.45;0.77;;;;;;;19.47;45.08;102517.22;16136349;19;129522;-64
2022/10/03 15:34:27;;;;;;;3.92;0.88;;;;;;;19.47;45.21;102515.31;16131670;19;130333;-63
2022/10/03 15:39:51;;;;;;;4.22;0.73;;;;;;;19.48;45.05;102513.38;16135581;19;129408;-61
2022/10/03 15:45:20;;;;;;;3.70;0.77;;;;;;;19.48;45.13;102503.13;16131986;19;130457;-62
2022/10/03 15:50:50;;;;;;;8.63;0.68;;;;;;;19.49;45.33;102492.88;16131934;19;129932;-63
2022/10/03 15:56:22;;;;;;;36.92;1.75;;;;;;;19.46;45.06;102496.94;16128579;19;134006;-63
2022/10/03 16:01:49;;;;;;;18.52;1.10;;;;;;;19.46;45.45;102487.75;16129258;19;129959;-64
2022/10/03 16:07:34;;;;;;;19.88;1.45;;;;;;;19.46;45.65;102479.41;16131558;19;129292;-61
2022/10/03 16:12:58;;;;;;;14.30;0.98;;;;;;;19.44;45.51;102489.91;16133778;19;130652;-62
2022/10/03 16:18:19;;;;;;;29.40;1.77;;;;;;;19.40;45.53;102478.34;16129967;19;129790;-64
2022/10/03 16:23:44;;;;;;;26.52;1.75;;;;;;;19.40;45.46;102481.13;16130973;19;129714;-64
2022/10/03 16:29:16;;;;;;;12.83;1.70;;;;;;;19.44;45.68;102484.34;16131474;19;129630;-64
2022/10/03 16:34:43;;;;;;;8.30;1.33;;;;;;;19.43;46.00;102482.66;16127846;19;129707;-61
2022/10/03 16:40:06;;;;;;;6.20;1.05;;;;;;;19.43;45.92;102474.31;16123937;19;131284;-62
2022/10/03 16:45:43;;;;;;;18.75;1.60;;;;;;;19.45;46.08;102472.16;16126549;19;128861;-61
2022/10/03 16:51:14;;;;;;;8.35;1.15;;;;;;;19.42;45.88;102469.84;16126977;19;130208;-64
2022/10/03 16:56:42;;;;;;;9.80;1.23;;;;;;;19.40;45.71;102467.25;16128446;19;129832;-65
2022/10/03 17:02:13;;;;;;;6.93;1.42;;;;;;;19.37;46.10;102468.53;16125940;19;129481;-63
2022/10/03 17:07:47;;;;;;;9.75;1.50;;;;;;;19.37;46.05;102470.47;16126295;19;129637;-63
2022/10/03 17:13:11;;;;;;;7.65;1.77;;;;;;;19.33;46.36;102480.28;16127581;19;130661;-63
2022/10/03 17:18:40;;;;;;;9.48;1.88;;;;;;;19.31;46.44;102468.53;16125694;19;129746;-64
2022/10/03 17:24:08;;;;;;;8.27;2.20;;;;;;;19.28;46.16;102453.19;16122282;19;129852;-65
2022/10/03 17:29:40;;;;;;;12.45;2.78;;;;;;;19.26;46.35;102455.31;16124124;19;129071;-64
2022/10/03 17:35:18;;;;;;;9.60;2.70;;;;;;;19.26;46.31;102449.75;16125712;19;129537;-63
2022/10/03 17:41:12;;;;;;;11.50;3.10;;;;;;;19.24;46.58;102454.66;16125398;19;129380;-65
2022/10/03 17:46:43;;;;;;;6.60;2.88;;;;;;;19.23;46.21;102461.28;16122616;19;129356;-66
2022/10/03 17:52:14;;;;;;;11.63;3.72;;;;;;;19.19;47.02;102444.19;16118384;19;129694;-56
2022/10/03 17:57:49;;;;;;;27.63;10.85;;;;;;;19.27;47.92;102456.16;16118323;19;129590;-55
2022/10/03 18:03:30;;;;;;;27.63;11.32;;;;;;;19.40;47.92;102447.00;16123353;19;129712;-62
2022/10/03 18:08:54;;;;;;;26.90;12.07;;;;;;;19.48;47.94;102439.31;16123061;19;133295;-64
2022/10/03 18:14:40;;;;;;;32.33;11.88;;;;;;;19.63;48.11;102452.94;16123965;19;130547;-59
2022/10/03 18:20:38;;;;;;;25.08;10.90;;;;;;;19.84;48.04;102440.72;16116751;19;129343;-63
2022/10/03 18:26:03;;;;;;;70.70;12.85;;;;;;;20.01;48.19;102456.09;16119720;19;129623;-61
2022/10/03 18:31:54;;;;;;;30.38;10.38;;;;;;;20.18;47.86;102451.75;16120539;19;129847;-63
2022/10/03 18:37:39;;;;;;;26.67;9.75;;;;;;;20.33;47.31;102451.47;16116694;19;130622;-57
2022/10/03 18:43:04;;;;;;;33.42;9.40;;;;;;;20.36;47.22;102437.16;16116634;19;131033;-60
2022/10/03 18:48:34;;;;;;;27.02;7.93;;;;;;;20.39;47.42;102435.84;16117614;19;129512;-62
2022/10/03 18:54:01;;;;;;;27.30;8.35;;;;;;;20.40;47.34;102429.22;16116987;19;129776;-59
2022/10/03 18:59:37;;;;;;;18.92;8.45;;;;;;;20.39;47.60;102441.41;16112350;19;129837;-57
2022/10/03 19:05:07;;;;;;;22.13;7.80;;;;;;;20.36;47.34;102423.25;16117181;19;129772;-58
2022/10/03 19:10:39;;;;;;;17.83;6.00;;;;;;;20.34;47.52;102410.63;16113400;19;130325;-56
2022/10/03 19:16:09;;;;;;;19.92;6.72;;;;;;;20.30;47.55;102410.22;16116769;19;130110;-53
2022/10/03 19:21:42;;;;;;;26.80;6.60;;;;;;;20.27;47.66;102405.09;16116197;19;129610;-62
2022/10/03 19:27:17;;;;;;;17.95;5.93;;;;;;;20.24;48.15;102414.75;16117180;19;129306;-59
2022/10/03 19:32:56;;;;;;;19.87;5.57;;;;;;;20.19;48.07;102403.41;16123768;19;130479;-58
2022/10/03 19:38:27;;;;;;;15.75;6.07;;;;;;;20.17;48.56;102411.16;16132429;19;129898;-57
2022/10/03 19:43:49;;;;;;;20.23;4.95;;;;;;;20.13;48.41;102399.59;16130119;19;129529;-56
2022/10/03 19:49:25;;;;;;;15.10;4.55;;;;;;;20.18;48.75;102382.28;16129610;19;129744;-61
2022/10/03 19:55:02;;;;;;;14.97;4.73;;;;;;;20.20;48.96;102366.22;16129180;19;129724;-62
2022/10/03 20:00:36;;;;;;;20.00;4.88;;;;;;;20.29;48.66;102376.03;16130516;19;129301;-61
2022/10/03 20:06:12;;;;;;;11.93;4.45;;;;;;;20.36;48.64;102375.13;16130003;19;136704;-60
2022/10/03 20:12:02;;;;;;;13.65;3.72;;;;;;;20.42;48.42;102393.72;16127884;19;130488;-60
2022/10/03 20:17:25;;;;;;;15.75;3.97;;;;;;;20.42;48.27;102380.66;16128886;19;129390;-60
2022/10/03 20:22:48;;;;;;;17.77;4.05;;;;;;;20.43;48.34;102370.41;16131337;19;129776;-60
2022/10/03 20:28:44;;;;;;;12.57;3.15;;;;;;;20.41;47.95;102386.44;16126688;19;129366;-58
2022/10/03 20:34:14;;;;;;;11.85;3.78;;;;;;;20.37;48.52;102393.50;16126232;19;129903;-61
2022/10/03 20:39:37;;;;;;;21.98;3.80;;;;;;;20.35;48.64;102398.44;16129468;19;129428;-59
2022/10/03 20:45:37;;;;;;;33.35;3.83;;;;;;;20.33;48.57;102407.00;16127950;19;129758;-66
2022/10/03 20:51:00;;;;;;;38.58;3.88;;;;;;;20.33;48.76;102403.34;16133334;19;129341;-59
2022/10/03 20:56:34;;;;;;;32.28;3.83;;;;;;;20.31;48.52;102392.47;16135711;19;129128;-59
2022/10/03 21:02:08;;;;;;;17.13;2.88;;;;;;;20.26;48.25;102386.72;16137027;19;130342;-59
2022/10/03 21:07:36;;;;;;;23.90;3.47;;;;;;;20.24;48.83;102381.38;16136404;19;130392;-59
2022/10/03 21:13:07;;;;;;;18.15;3.63;;;;;;;20.24;48.21;102391.66;16137515;19;129473;-60
2022/10/03 21:18:39;;;;;;;12.98;2.72;;;;;;;20.22;48.48;102385.47;16124824;19;129621;-64
2022/10/03 21:24:01;;;;;;;17.92;2.65;;;;;;;20.20;48.53;102379.28;16135333;19;130138;-64
2022/10/03 21:29:23;;;;;;;24.42;3.28;;;;;;;20.17;48.34;102383.38;16124773;19;129559;-65
2022/10/03 21:35:04;;;;;;;16.38;2.80;;;;;;;20.14;48.28;102376.31;16126229;19;130323;-65
2022/10/03 21:40:35;;;;;;;18.42;2.75;;;;;;;20.09;48.43;102365.03;16119768;19;129634;-64
2022/10/03 21:46:27;;;;;;;16.88;2.60;;;;;;;20.05;48.13;102362.91;16123186;19;129856;-63
2022/10/03 21:52:08;;;;;;;11.32;2.08;;;;;;;20.00;48.48;102349.66;16128141;19;129258;-68
2022/10/03 21:57:47;;;;;;;10.65;2.67;;;;;;;19.95;48.09;102343.91;16123203;19;129279;-66
2022/10/03 22:03:22;;;;;;;12.27;2.22;;;;;;;19.94;48.48;102344.97;16124616;19;130732;-69
2022/10/03 22:08:47;;;;;;;5.15;1.65;;;;;;;19.89;48.38;102340.06;16128126;19;129395;-63
2022/10/03 22:14:47;;;;;;;11.03;1.70;;;;;;;19.87;48.14;102338.59;16127506;19;129774;-62
2022/10/03 22:20:19;;;;;;;5.22;1.25;;;;;;;19.86;47.92;102339.66;16132066;19;129279;-63
2022/10/03 22:26:20;;;;;;;11.20;1.77;;;;;;;19.83;48.03;102329.84;16129849;19;129254;-64
2022/10/03 22:31:44;;;;;;;8.25;1.50;;;;;;;19.79;47.84;102323.03;16124883;19;129494;-63
2022/10/03 22:37:06;;;;;;;6.00;1.60;;;;;;;19.76;48.09;102315.13;16123360;19;130187;-65
2022/10/03 22:42:33;;;;;;;6.63;1.50;;;;;;;19.74;48.04;102311.72;16123538;19;129854;-63
2022/10/03 22:48:00;;;;;;;4.57;1.33;;;;;;;19.71;47.99;102306.59;16122162;19;130011;-63
2022/10/03 22:53:27;;;;;;;2.95;1.40;;;;;;;19.68;47.84;102291.25;16120146;19;129535;-65
2022/10/03 22:58:50;;;;;;;8.25;1.42;;;;;;;19.67;48.23;102295.09;16122325;19;129192;-64
2022/10/03 23:04:23;;;;;;;5.10;1.30;;;;;;;19.66;47.82;102296.16;16123088;19;134760;-63
2022/10/03 23:10:01;;;;;;;6.13;1.20;;;;;;;19.64;48.08;102298.31;16128330;19;129361;-63
2022/10/03 23:15:25;;;;;;;4.05;0.93;;;;;;;19.62;48.08;102292.97;16134249;19;130957;-66
2022/10/03 23:21:05;;;;;;;3.25;0.90;;;;;;;19.61;47.67;102291.28;16133037;19;129375;-66
2022/10/03 23:26:47;;;;;;;1.65;0.93;;;;;;;19.62;47.82;102297.69;16135288;19;130059;-67
2022/10/03 23:32:10;;;;;;;4.72;1.15;;;;;;;19.57;47.81;102295.56;16133346;19;129639;-68
2022/10/03 23:37:38;;;;;;;2.67;0.70;;;;;;;19.55;47.54;102297.72;16134986;19;129348;-65
2022/10/03 23:43:17;;;;;;;2.08;0.85;;;;;;;19.54;47.89;102296.00;16134989;19;130110;-62
2022/10/03 23:48:46;;;;;;;3.53;0.80;;;;;;;19.53;47.58;102302.63;16135755;19;129161;-65
2022/10/03 23:54:11;;;;;;;3.30;1.00;;;;;;;19.51;47.70;102291.72;16133678;19;129596;-65
2022/10/03 23:59:36;;;;;;;1.88;0.82;;;;;;;19.49;47.96;102295.81;16131743;19;131157;-65
